Time;durP1;ratioP1;P1;durP2;ratioP2;P2;SDS_P1;SDS_P2;PMS_P1;PMS_P2;Temp;Humidity;BMP_temperature;BMP_pressure;BME280_temperature;BME280_humidity;BME280_pressure;Samples;Min_cycle;Max_cycle;Signal;HPM_P1;HPM_P2
2022/03/09 00:02:10;;;;;;;15.20;8.05;;;0.10;82.60;;;;;;4995488;28;20039;-80
2022/03/09 00:04:36;;;;;;;18.48;8.95;;;0.00;82.80;;;;;;5172841;23;20055;-80
2022/03/09 00:07:02;;;;;;;20.08;9.35;;;-0.10;83.00;;;;;;4942605;29;20040;-80
2022/03/09 00:09:28;;;;;;;19.67;8.40;;;-0.10;83.30;;;;;;4926182;29;20056;-79
2022/03/09 00:11:53;;;;;;;18.65;9.25;;;-0.10;83.70;;;;;;4924407;29;20036;-79
2022/03/09 00:14:19;;;;;;;17.52;8.70;;;-0.10;83.70;;;;;;4926054;29;20043;-78
2022/03/09 00:16:48;;;;;;;18.05;9.00;;;-0.10;83.50;;;;;;4925456;29;20075;-81
2022/03/09 00:19:14;;;;;;;16.05;8.63;;;-0.10;83.50;;;;;;4925855;29;20150;-80
2022/03/09 00:21:43;;;;;;;16.67;8.85;;;-0.10;83.80;;;;;;4925276;29;20024;-79
2022/03/09 00:24:08;;;;;;;16.45;8.30;;;-0.20;83.90;;;;;;4908992;29;20191;-79
2022/03/09 00:26:34;;;;;;;17.90;9.27;;;-0.30;83.80;;;;;;4925714;29;20126;-80
2022/03/09 00:29:00;;;;;;;14.05;7.65;;;-0.20;84.40;;;;;;4943000;29;20103;-80
2022/03/09 00:32:22;;;;;;;16.98;8.13;;;-0.20;84.30;;;;;;4928827;29;20285;-80
2022/03/09 00:34:47;;;;;;;14.10;7.72;;;-0.20;84.50;;;;;;4931040;29;20056;-79
2022/03/09 00:37:14;;;;;;;16.05;7.70;;;-0.20;84.70;;;;;;4938715;29;20064;-80
2022/03/09 00:39:40;;;;;;;16.52;7.93;;;-0.20;84.70;;;;;;4937217;29;20047;-80
2022/03/09 00:42:06;;;;;;;15.93;7.90;;;-0.20;84.10;;;;;;4938033;29;20077;-78
2022/03/09 00:44:32;;;;;;;19.33;8.55;;;-0.10;84.20;;;;;;4938340;29;20330;-78
2022/03/09 00:46:57;;;;;;;18.70;9.02;;;-0.20;84.00;;;;;;4937059;29;20051;-79
2022/03/09 00:49:24;;;;;;;17.92;9.18;;;-0.10;84.00;;;;;;4937182;29;20024;-79
2022/03/09 00:51:51;;;;;;;16.33;8.30;;;-0.10;84.10;;;;;;4935289;29;20093;-78
2022/03/09 00:55:06;;;;;;;16.70;8.63;;;-0.20;84.10;;;;;;4935648;29;20036;-80
2022/03/09 00:57:41;;;;;;;17.25;8.93;;;-0.10;84.10;;;;;;4931258;29;20031;-79
2022/03/09 01:00:09;;;;;;;20.13;9.50;;;-0.20;85.20;;;;;;4929731;29;20099;-79
2022/03/09 01:02:45;;;;;;;18.50;9.38;;;-0.20;85.10;;;;;;4928999;29;20063;-79
2022/03/09 01:05:12;;;;;;;17.48;8.68;;;-0.20;85.50;;;;;;4929146;29;20052;-79
2022/03/09 01:07:38;;;;;;;18.33;8.50;;;-0.20;86.00;;;;;;4928704;29;20098;-79
2022/03/09 01:10:11;;;;;;;19.42;9.18;;;-0.30;86.40;;;;;;4928515;29;20035;-79
2022/03/09 01:12:37;;;;;;;19.02;9.45;;;-0.30;86.50;;;;;;4928452;29;20107;-80
2022/03/09 01:15:16;;;;;;;20.58;8.85;;;-0.30;86.90;;;;;;4926856;29;20032;-79
2022/03/09 01:17:41;;;;;;;16.63;8.32;;;-0.40;87.20;;;;;;4926833;29;20044;-79
2022/03/09 01:20:08;;;;;;;17.48;9.40;;;-0.40;87.20;;;;;;4928600;29;20042;-79
2022/03/09 01:22:35;;;;;;;20.17;10.27;;;-0.50;87.60;;;;;;4928325;29;20063;-79
2022/03/09 01:25:01;;;;;;;19.00;9.25;;;-0.60;87.60;;;;;;4928037;29;20532;-79
2022/03/09 01:27:26;;;;;;;16.77;9.27;;;-0.60;88.00;;;;;;4928314;29;20028;-81
2022/03/09 01:29:52;;;;;;;18.55;8.80;;;-0.60;87.90;;;;;;4927465;29;20430;-79
2022/03/09 01:32:19;;;;;;;15.25;7.88;;;-0.60;87.60;;;;;;4926958;29;20083;-80
2022/03/09 01:34:45;;;;;;;15.80;8.10;;;-0.70;87.70;;;;;;4927462;29;20046;-79
2022/03/09 01:37:11;;;;;;;17.92;9.05;;;-0.80;88.10;;;;;;4927893;29;20052;-79
2022/03/09 01:39:37;;;;;;;17.13;8.82;;;-0.90;88.20;;;;;;4926241;29;20044;-79
2022/03/09 01:42:03;;;;;;;16.05;8.57;;;-0.90;88.70;;;;;;4942540;29;20031;-79
2022/03/09 01:44:29;;;;;;;16.70;8.07;;;-0.90;88.60;;;;;;4927892;29;20035;-79
2022/03/09 01:46:56;;;;;;;15.98;7.75;;;-0.90;88.50;;;;;;4927839;29;20079;-80
2022/03/09 01:49:23;;;;;;;15.30;7.03;;;-0.90;88.30;;;;;;4911506;29;20036;-80
2022/03/09 01:51:55;;;;;;;16.08;7.97;;;-0.80;87.80;;;;;;4926274;29;20031;-79
2022/03/09 01:54:22;;;;;;;15.65;7.55;;;-0.80;87.30;;;;;;4926915;29;20306;-79
2022/03/09 01:56:47;;;;;;;17.27;8.30;;;-0.70;86.80;;;;;;4927630;29;20032;-78
2022/03/09 01:59:17;;;;;;;20.05;10.55;;;-0.70;87.20;;;;;;4927683;29;20068;-79
2022/03/09 02:01:58;;;;;;;;;;;-0.70;88.10;;;;;;4925819;29;20059;-80
2022/03/09 02:04:24;;;;;;;20.17;8.82;;;-0.70;88.00;;;;;;4927480;29;19960;-78
2022/03/09 02:06:51;;;;;;;20.73;9.77;;;-0.80;88.20;;;;;;4926955;29;20099;-79
2022/03/09 02:12:05;;;;;;;20.48;9.90;;;-0.80;88.70;;;;;;4910033;29;20051;-79
2022/03/09 02:14:37;;;;;;;16.85;8.50;;;-0.80;88.50;;;;;;4894860;29;20064;-79
2022/03/09 02:17:11;;;;;;;19.88;9.10;;;-0.80;88.80;;;;;;4894199;29;20032;-78
2022/03/09 02:19:41;;;;;;;16.65;8.70;;;-0.90;88.60;;;;;;4895301;29;20334;-79
2022/03/09 02:22:33;;;;;;;13.15;8.02;;;-1.10;89.30;;;;;;4894516;29;20054;-80
2022/03/09 02:25:36;;;;;;;19.52;9.63;;;-1.00;89.10;;;;;;4926151;29;20028;-79
2022/03/09 02:28:01;;;;;;;19.55;9.57;;;-1.00;89.30;;;;;;4904998;29;20044;-79
2022/03/09 02:30:30;;;;;;;18.70;9.05;;;-1.00;89.30;;;;;;4926892;29;20031;-79
2022/03/09 02:32:55;;;;;;;;;;;-1.00;89.90;;;;;;4927387;29;20039;-79
2022/03/09 02:35:24;;;;;;;16.17;8.30;;;-1.00;89.90;;;;;;4902105;29;19909;-80
2022/03/09 02:37:50;;;;;;;20.30;8.90;;;-1.00;89.50;;;;;;4907837;29;20104;-80
2022/03/09 02:40:17;;;;;;;21.48;8.82;;;-1.00;88.70;;;;;;4908096;29;20244;-79
2022/03/09 02:42:46;;;;;;;18.35;8.68;;;-1.00;88.70;;;;;;4907056;29;20039;-78
2022/03/09 02:45:12;;;;;;;16.38;8.30;;;-0.90;88.90;;;;;;4906840;29;20042;-79
2022/03/09 02:48:01;;;;;;;15.38;8.07;;;-0.90;88.50;;;;;;4905555;29;20028;-78
2022/03/09 02:50:30;;;;;;;14.63;7.03;;;-1.00;88.50;;;;;;4907106;29;20043;-78
2022/03/09 02:52:56;;;;;;;16.58;7.97;;;-1.00;88.30;;;;;;4905345;29;20349;-80
2022/03/09 02:55:22;;;;;;;19.52;9.30;;;-1.00;87.90;;;;;;4907014;29;20036;-79
2022/03/09 02:57:50;;;;;;;19.20;8.95;;;-1.00;88.60;;;;;;4906615;29;20076;-78
2022/03/09 03:00:16;;;;;;;15.55;8.45;;;-1.10;88.60;;;;;;4907646;29;20111;-78
2022/03/09 03:03:10;;;;;;;18.05;9.07;;;-1.10;89.30;;;;;;4907804;29;20044;-80
2022/03/09 03:05:36;;;;;;;18.40;8.88;;;-1.20;90.20;;;;;;4907345;29;20084;-79
2022/03/09 03:08:13;;;;;;;16.85;8.07;;;-1.20;90.20;;;;;;4905892;29;20033;-79
2022/03/09 03:10:42;;;;;;;18.80;8.38;;;-1.30;90.10;;;;;;4909648;29;20056;-79
2022/03/09 03:13:08;;;;;;;15.23;7.55;;;-1.30;90.20;;;;;;4905968;29;20040;-78
2022/03/09 03:15:39;;;;;;;15.18;8.25;;;-1.30;90.00;;;;;;4907111;29;20032;-79
2022/03/09 03:18:12;;;;;;;15.43;8.07;;;-1.30;89.60;;;;;;4905969;29;20037;-79
2022/03/09 03:20:38;;;;;;;14.57;7.88;;;-1.40;89.30;;;;;;4907278;29;20278;-78
2022/03/09 03:23:35;;;;;;;15.18;7.43;;;-1.50;89.60;;;;;;4907049;29;20036;-76
2022/03/09 03:26:03;;;;;;;15.30;7.18;;;-1.50;89.50;;;;;;4908749;29;20040;-77
2022/03/09 03:28:53;;;;;;;18.25;7.97;;;-1.50;89.30;;;;;;4910914;29;20027;-78
2022/03/09 03:31:20;;;;;;;14.80;7.63;;;-1.50;89.60;;;;;;4920641;29;20033;-78
2022/03/09 03:33:47;;;;;;;16.02;8.43;;;-1.50;89.70;;;;;;4919409;29;20295;-80
2022/03/09 03:36:15;;;;;;;18.35;8.32;;;-1.60;90.10;;;;;;4923225;29;20066;-79
2022/03/09 03:38:41;;;;;;;15.88;7.75;;;-1.60;90.00;;;;;;4926153;29;20032;-80
2022/03/09 03:41:07;;;;;;;16.67;8.05;;;-1.60;89.90;;;;;;4908923;29;20039;-80
2022/03/09 03:43:33;;;;;;;15.75;8.50;;;-1.60;89.80;;;;;;4924815;29;20323;-79
2022/03/09 03:45:58;;;;;;;19.65;9.43;;;-1.60;89.50;;;;;;4924155;29;20079;-79
2022/03/09 03:48:24;;;;;;;16.17;7.97;;;-1.50;89.40;;;;;;4924445;29;20106;-79
2022/03/09 03:50:50;;;;;;;17.75;7.82;;;-1.60;89.30;;;;;;4908067;29;20146;-80
2022/03/09 03:53:16;;;;;;;15.55;8.05;;;-1.60;90.00;;;;;;4924372;29;20214;-80
2022/03/09 03:55:51;;;;;;;15.25;7.75;;;-1.70;90.00;;;;;;4909385;29;20035;-80
2022/03/09 03:58:32;;;;;;;18.88;7.93;;;-1.70;89.80;;;;;;4925951;29;20035;-79
2022/03/09 04:00:58;;;;;;;15.20;7.32;;;-1.60;89.70;;;;;;4908299;29;20031;-81
2022/03/09 04:03:24;;;;;;;17.17;9.00;;;-1.70;89.40;;;;;;4924213;29;20031;-79
2022/03/09 04:06:10;;;;;;;20.75;9.70;;;-1.70;89.70;;;;;;4926192;29;20056;-80
2022/03/09 04:08:36;;;;;;;14.60;8.23;;;-1.70;90.20;;;;;;4925743;29;20318;-80
2022/03/09 04:11:01;;;;;;;18.98;9.50;;;-1.70;90.00;;;;;;4908734;29;20050;-79
2022/03/09 04:13:27;;;;;;;16.73;8.50;;;-1.70;90.10;;;;;;4925932;29;20059;-80
2022/03/09 04:15:53;;;;;;;18.30;8.98;;;-1.70;90.00;;;;;;4925667;29;20021;-81
2022/03/09 04:18:19;;;;;;;17.40;8.25;;;-1.80;90.30;;;;;;4926213;29;20036;-79
2022/03/09 04:20:45;;;;;;;19.20;8.98;;;-1.80;90.20;;;;;;4924971;29;20071;-79
2022/03/09 04:23:11;;;;;;;15.65;8.50;;;-1.80;90.40;;;;;;4925739;29;20387;-79
2022/03/09 04:25:37;;;;;;;17.98;9.40;;;-1.80;90.30;;;;;;4925129;29;20282;-81
2022/03/09 04:28:04;;;;;;;19.35;9.90;;;-1.80;90.40;;;;;;4924183;29;20051;-80
2022/03/09 04:30:30;;;;;;;15.63;8.95;;;-1.90;90.30;;;;;;4925130;29;20210;-81
2022/03/09 04:33:11;;;;;;;17.88;9.45;;;-1.90;90.10;;;;;;4925789;29;20032;-82
2022/03/09 04:35:36;;;;;;;19.95;9.90;;;-1.80;90.20;;;;;;4918323;29;20120;-83
2022/03/09 04:38:02;;;;;;;17.42;9.27;;;-1.90;90.30;;;;;;4909169;29;20032;-80
2022/03/09 04:40:28;;;;;;;15.35;7.75;;;-2.00;90.40;;;;;;4909761;29;20047;-81
2022/03/09 04:42:54;;;;;;;19.00;9.35;;;-2.00;90.60;;;;;;4926049;29;20245;-80
2022/03/09 04:49:07;;;;;;;16.63;8.38;;;-2.20;91.30;;;;;;4925233;29;20137;-80
2022/03/09 04:51:39;;;;;;;15.35;8.05;;;-2.10;91.10;;;;;;4924842;29;20040;-81
2022/03/09 04:54:23;;;;;;;15.02;8.50;;;-2.10;90.90;;;;;;4893161;29;20028;-81
2022/03/09 04:56:49;;;;;;;15.80;7.50;;;-2.00;90.80;;;;;;4925996;29;20040;-81
2022/03/09 04:59:17;;;;;;;15.10;7.78;;;-2.00;90.60;;;;;;4908299;29;20016;-80
2022/03/09 05:01:45;;;;;;;14.77;7.80;;;-2.00;90.30;;;;;;4909425;29;20383;-81
2022/03/09 05:04:17;;;;;;;15.15;8.18;;;-2.00;90.30;;;;;;4924887;29;20054;-80
2022/03/09 05:06:46;;;;;;;15.90;8.48;;;-2.10;90.10;;;;;;4924623;29;20035;-81
2022/03/09 05:09:16;;;;;;;16.48;7.93;;;-2.10;90.10;;;;;;4925667;29;20036;-82
2022/03/09 05:11:41;;;;;;;16.00;7.93;;;-2.20;90.20;;;;;;4924325;29;20047;-81
2022/03/09 05:14:11;;;;;;;15.02;7.70;;;-2.20;90.10;;;;;;4892913;29;20039;-81
2022/03/09 05:16:36;;;;;;;17.23;8.45;;;-2.20;90.20;;;;;;4929068;29;20036;-82
2022/03/09 05:19:02;;;;;;;15.20;8.15;;;-2.30;90.60;;;;;;4911901;29;20231;-81
2022/03/09 05:21:28;;;;;;;16.48;8.23;;;-2.30;90.80;;;;;;4929190;29;20106;-80
2022/03/09 05:23:57;;;;;;;15.73;8.43;;;-2.20;91.00;;;;;;4930836;29;20024;-80
2022/03/09 05:26:23;;;;;;;18.00;8.50;;;-2.30;90.70;;;;;;4928867;29;20306;-80
2022/03/09 05:28:48;;;;;;;15.75;8.55;;;-2.30;90.90;;;;;;4928110;29;20106;-82
2022/03/09 05:31:14;;;;;;;13.73;8.07;;;-2.30;90.60;;;;;;4928390;29;20043;-79
2022/03/09 05:34:31;;;;;;;;;;;;;;;;;;;;;
2022/03/09 05:37:22;;;;;;;16.33;8.23;;;-2.30;90.80;;;;;;4888276;29;20029;-80
2022/03/09 05:39:57;;;;;;;18.08;8.20;;;-2.40;91.00;;;;;;4904765;29;20114;-81
2022/03/09 06:02:41;;;;;;;15.00;7.82;;;-2.30;90.60;;;;;;4811309;29;20129;-79
2022/03/09 06:09:44;;;;;;;18.15;9.00;;;-2.20;90.80;;;;;;4813156;29;20041;-80
2022/03/09 06:12:37;;;;;;;18.48;8.45;;;-2.20;90.80;;;;;;4797625;30;20039;-78
2022/03/09 06:23:16;;;;;;;18.45;8.82;;;-1.90;90.40;;;;;;4760155;30;20453;-80
2022/03/09 06:26:37;;;;;;;20.10;8.43;;;-1.80;89.70;;;;;;4730983;30;20365;-79
2022/03/09 06:38:14;;;;;;;20.65;9.10;;;-1.30;88.20;;;;;;4706616;30;20042;-79
2022/03/09 06:45:13;;;;;;;17.67;9.18;;;-1.00;88.10;;;;;;4708475;30;20171;-80
2022/03/09 06:47:52;;;;;;;;;;;;;;;;;;;;;
2022/03/09 06:54:23;;;;;;;17.70;9.48;;;-0.80;86.50;;;;;;4983835;23;20050;-80
2022/03/09 06:56:51;;;;;;;22.05;9.52;;;-0.60;85.90;;;;;;4938966;29;20084;-79
2022/03/09 06:59:18;;;;;;;19.13;9.50;;;-0.50;85.50;;;;;;5021773;23;20047;-79
2022/03/09 07:01:44;;;;;;;20.85;9.80;;;-0.50;84.90;;;;;;4927166;29;20326;-80
2022/03/09 07:04:22;;;;;;;19.55;10.20;;;-0.40;84.40;;;;;;4939693;29;20047;-79
2022/03/09 07:06:47;;;;;;;19.63;9.32;;;-0.30;84.40;;;;;;4945301;29;20106;-79
2022/03/09 07:09:38;;;;;;;27.35;10.55;;;-0.20;84.00;;;;;;4929294;29;20075;-79
2022/03/09 07:12:08;;;;;;;18.17;9.85;;;-0.10;84.10;;;;;;4928876;29;20047;-79
2022/03/09 07:14:36;;;;;;;17.77;9.70;;;0.00;83.50;;;;;;4945211;29;20032;-79
2022/03/09 07:17:02;;;;;;;25.50;10.85;;;0.10;83.10;;;;;;4943809;29;20048;-80
2022/03/09 07:19:28;;;;;;;22.75;10.68;;;0.10;82.60;;;;;;4944603;29;20035;-79
2022/03/09 07:21:54;;;;;;;20.55;10.77;;;0.10;83.00;;;;;;4945224;29;20032;-79
2022/03/09 07:24:21;;;;;;;24.58;10.85;;;0.20;82.30;;;;;;4954737;29;20038;-80
2022/03/09 07:26:50;;;;;;;21.35;10.60;;;0.30;82.10;;;;;;4939620;29;20031;-79
2022/03/09 07:29:17;;;;;;;25.35;10.77;;;0.30;81.90;;;;;;4951342;29;20106;-78
2022/03/09 07:31:43;;;;;;;20.75;10.75;;;0.40;82.30;;;;;;4933999;29;20056;-78
2022/03/09 07:34:09;;;;;;;23.25;10.70;;;0.50;81.50;;;;;;4934005;29;20034;-78
2022/03/09 07:36:35;;;;;;;22.95;11.18;;;0.50;81.20;;;;;;4928313;29;20337;-78
2022/03/09 07:39:14;;;;;;;24.48;11.88;;;0.50;80.80;;;;;;4926772;29;20023;-79
2022/03/09 07:48:14;;;;;;;26.33;11.30;;;0.80;80.50;;;;;;4924312;29;20099;-78
2022/03/09 07:50:42;;;;;;;24.48;11.30;;;1.00;79.50;;;;;;4925106;29;20032;-78
2022/03/09 08:04:52;;;;;;;24.15;12.05;;;1.50;77.50;;;;;;4905734;29;20036;-78
2022/03/09 08:07:34;;;;;;;21.60;11.80;;;1.60;77.50;;;;;;4886733;29;20037;-78
2022/03/09 08:10:08;;;;;;;22.88;11.70;;;1.80;77.30;;;;;;4898909;29;20130;-78
2022/03/09 08:12:40;;;;;;;23.05;11.57;;;1.90;77.10;;;;;;4892726;29;20039;-78
2022/03/09 08:15:12;;;;;;;25.90;12.20;;;1.90;77.10;;;;;;4886363;29;20036;-79
2022/03/09 08:17:41;;;;;;;22.77;11.45;;;2.10;76.40;;;;;;4889719;29;20033;-79
2022/03/09 08:20:21;;;;;;;23.00;11.15;;;2.30;76.10;;;;;;4891483;29;20063;-79
2022/03/09 08:23:04;;;;;;;18.02;9.05;;;2.40;75.80;;;;;;4912395;29;20031;-78
2022/03/09 08:26:03;;;;;;;19.08;10.68;;;2.60;75.50;;;;;;4910527;29;20039;-79
2022/03/09 08:31:50;;;;;;;18.73;10.60;;;3.00;74.50;;;;;;4943459;29;20055;-79
2022/03/09 08:34:16;;;;;;;18.73;10.15;;;3.40;74.60;;;;;;4928876;29;20035;-80
2022/03/09 08:36:43;;;;;;;22.37;10.13;;;3.50;73.20;;;;;;4933563;29;20116;-78
2022/03/09 08:39:10;;;;;;;21.70;11.80;;;3.70;72.30;;;;;;4923952;29;20319;-80
2022/03/09 08:41:39;;;;;;;22.98;10.88;;;3.80;71.60;;;;;;4893101;29;20028;-79
2022/03/09 08:44:20;;;;;;;19.70;10.15;;;3.70;71.60;;;;;;4924260;29;20151;-78
2022/03/09 08:46:46;;;;;;;20.20;9.73;;;3.80;71.10;;;;;;4923634;29;20330;-79
2022/03/09 08:49:17;;;;;;;20.45;10.73;;;3.90;71.30;;;;;;4895431;29;20047;-79
2022/03/09 08:52:12;;;;;;;16.35;9.00;;;4.10;70.70;;;;;;4929170;29;20365;-79
2022/03/09 08:59:47;;;;;;;13.75;8.20;;;4.50;69.60;;;;;;4923955;29;20455;-78
2022/03/09 09:02:16;;;;;;;17.02;9.38;;;4.80;68.60;;;;;;4911111;29;20044;-78
2022/03/09 09:04:42;;;;;;;17.27;8.98;;;4.90;68.10;;;;;;4929538;29;20044;-77
2022/03/09 09:07:13;;;;;;;17.40;8.32;;;5.10;67.60;;;;;;4929692;29;20040;-78
2022/03/09 09:09:39;;;;;;;18.77;9.23;;;5.20;67.50;;;;;;4912723;29;20047;-77
2022/03/09 09:12:17;;;;;;;14.57;8.90;;;5.30;67.30;;;;;;4928402;29;20031;-78
2022/03/09 09:15:08;;;;;;;16.83;9.15;;;5.40;67.90;;;;;;4911272;29;20028;-78
2022/03/09 09:18:02;;;;;;;18.02;8.57;;;5.60;66.70;;;;;;4920528;29;20083;-78
2022/03/09 09:21:12;;;;;;;21.00;9.18;;;5.70;66.80;;;;;;4940529;29;20035;-79
2022/03/09 09:23:39;;;;;;;16.80;9.35;;;5.80;66.20;;;;;;4948710;29;20028;-81
2022/03/09 09:26:16;;;;;;;13.70;8.93;;;5.90;66.20;;;;;;4949402;29;20121;-78
2022/03/09 09:28:45;;;;;;;17.33;9.05;;;6.10;65.50;;;;;;4947296;29;20246;-78
2022/03/09 09:31:14;;;;;;;17.80;8.73;;;6.10;65.50;;;;;;4949211;29;20047;-79
2022/03/09 09:34:11;;;;;;;18.25;9.02;;;6.20;65.20;;;;;;4930168;29;20039;-77
2022/03/09 09:36:39;;;;;;;15.13;9.15;;;6.30;64.90;;;;;;4946091;29;20023;-78
2022/03/09 09:39:13;;;;;;;16.90;9.50;;;6.30;64.90;;;;;;4947829;29;20039;-78
2022/03/09 09:41:43;;;;;;;17.25;9.98;;;6.50;65.30;;;;;;4943538;29;20039;-78
2022/03/09 09:44:45;;;;;;;;;;;;;;;;;;;;;
2022/03/09 09:51:11;;;;;;;14.63;8.80;;;7.00;64.50;;;;;;4906284;29;20048;-79
2022/03/09 09:53:44;;;;;;;16.70;8.80;;;7.20;64.10;;;;;;4909021;29;20039;-78
2022/03/09 09:56:43;;;;;;;16.83;9.38;;;7.30;63.00;;;;;;4909815;29;20049;-78
2022/03/09 09:59:29;;;;;;;18.08;8.80;;;7.30;62.50;;;;;;4852206;29;20117;-78
2022/03/09 10:01:55;;;;;;;13.93;8.73;;;7.30;62.00;;;;;;4851587;29;20082;-78
2022/03/09 10:04:20;;;;;;;16.80;9.52;;;7.30;62.00;;;;;;4847811;29;20045;-79
2022/03/09 10:06:46;;;;;;;16.30;9.05;;;7.40;61.90;;;;;;4834523;29;20112;-78
2022/03/09 10:09:38;;;;;;;18.17;9.30;;;7.60;61.90;;;;;;4818893;29;20114;-80
2022/03/09 10:12:27;;;;;;;17.20;8.65;;;7.70;61.30;;;;;;4833728;29;20055;-78
2022/03/09 10:14:54;;;;;;;;;;;7.80;61.30;;;;;;4834919;29;20074;-78
2022/03/09 10:17:23;;;;;;;17.60;8.82;;;7.90;61.30;;;;;;4832071;29;19912;-79
2022/03/09 10:20:14;;;;;;;15.43;9.50;;;7.90;60.70;;;;;;4833460;29;20042;-79
2022/03/09 10:23:08;;;;;;;15.82;9.77;;;8.00;60.50;;;;;;4835340;29;20034;-79
2022/03/09 10:25:40;;;;;;;16.67;9.02;;;8.00;59.90;;;;;;4762790;30;20107;-79
2022/03/09 10:28:31;;;;;;;15.68;9.73;;;8.00;60.30;;;;;;4743489;30;20040;-79
2022/03/09 10:30:58;;;;;;;20.70;9.65;;;8.10;59.80;;;;;;4746835;30;20052;-79
2022/03/09 10:33:24;;;;;;;19.00;9.20;;;8.20;60.00;;;;;;4745794;30;20067;-79
2022/03/09 10:35:53;;;;;;;17.65;8.80;;;8.30;59.60;;;;;;4775469;29;20069;-79
2022/03/09 10:38:27;;;;;;;17.17;9.30;;;8.50;59.00;;;;;;4859947;29;20058;-80
2022/03/09 10:43:49;;;;;;;16.40;9.48;;;8.80;58.60;;;;;;4956507;26;20055;-79
2022/03/09 10:46:44;;;;;;;17.27;9.55;;;9.00;58.50;;;;;;4969354;28;20046;-80
2022/03/09 10:52:55;;;;;;;20.83;9.57;;;9.20;57.60;;;;;;4950354;29;20042;-80
2022/03/09 10:55:31;;;;;;;16.60;9.88;;;9.50;57.60;;;;;;4948576;29;20067;-78
2022/03/09 10:58:47;;;;;;;17.58;10.00;;;9.70;57.00;;;;;;4915435;29;20070;-80
2022/03/09 11:01:17;;;;;;;17.70;9.95;;;9.90;55.80;;;;;;4947489;29;20038;-79
2022/03/09 11:04:15;;;;;;;21.25;10.23;;;10.10;55.40;;;;;;4946997;29;20044;-79
2022/03/09 11:06:46;;;;;;;15.45;9.80;;;10.60;54.60;;;;;;4930005;29;20214;-79
2022/03/09 11:09:45;;;;;;;21.33;11.40;;;11.40;53.30;;;;;;4946591;29;20035;-78
2022/03/09 11:12:33;;;;;;;20.27;11.13;;;12.10;51.80;;;;;;4889576;29;20044;-79
2022/03/09 11:18:49;;;;;;;20.42;11.95;;;13.60;49.20;;;;;;4925528;29;20263;-79
2022/03/09 11:21:17;;;;;;;18.23;12.23;;;14.80;47.80;;;;;;4925514;29;20058;-79
2022/03/09 11:23:43;;;;;;;21.00;12.70;;;15.20;46.40;;;;;;4925428;29;20036;-79
2022/03/09 11:26:28;;;;;;;17.20;12.23;;;15.60;46.20;;;;;;4925512;29;20036;-78
2022/03/09 11:29:07;;;;;;;15.45;11.60;;;16.60;45.20;;;;;;4925905;29;20052;-78
2022/03/09 11:31:52;;;;;;;17.27;10.73;;;17.70;44.40;;;;;;4923951;29;20059;-79
2022/03/09 11:38:32;;;;;;;15.63;11.47;;;19.30;43.20;;;;;;4906412;29;20107;-79
2022/03/09 11:44:52;;;;;;;15.25;11.90;;;20.90;40.80;;;;;;4906804;29;20397;-79
2022/03/09 11:47:19;;;;;;;15.85;11.32;;;21.70;40.50;;;;;;4926998;29;20055;-79
2022/03/09 11:49:53;;;;;;;14.45;11.40;;;22.20;39.80;;;;;;4910502;29;20135;-80
2022/03/09 11:52:56;;;;;;;14.75;11.35;;;22.30;38.80;;;;;;4920991;29;20050;-77
2022/03/09 11:55:23;;;;;;;14.27;11.20;;;22.40;38.30;;;;;;4909934;29;20036;-80
2022/03/09 11:57:49;;;;;;;16.65;11.35;;;23.60;38.20;;;;;;4908643;29;20051;-80
2022/03/09 12:00:20;;;;;;;15.15;12.13;;;24.10;38.60;;;;;;4924955;29;20055;-80
2022/03/09 12:02:48;;;;;;;14.82;11.15;;;23.70;37.10;;;;;;4924211;29;20031;-80
2022/03/09 12:05:31;;;;;;;14.32;10.82;;;23.70;38.30;;;;;;4938153;29;20024;-80
2022/03/09 12:08:11;;;;;;;13.55;10.25;;;24.10;37.50;;;;;;4927413;29;20103;-79
2022/03/09 12:10:54;;;;;;;12.68;10.48;;;24.60;37.10;;;;;;4944077;29;20036;-80
2022/03/09 12:13:31;;;;;;;12.18;10.77;;;24.70;37.80;;;;;;4942629;29;20048;-80
2022/03/09 12:16:14;;;;;;;12.90;11.07;;;25.20;36.30;;;;;;4926713;29;20048;-78
2022/03/09 12:18:46;;;;;;;12.75;11.18;;;25.30;36.00;;;;;;4927132;29;20035;-78
2022/03/09 12:21:14;;;;;;;13.23;10.48;;;25.60;35.60;;;;;;4941061;29;20032;-81
2022/03/09 12:24:02;;;;;;;12.73;11.07;;;25.90;35.50;;;;;;4927789;29;20036;-79
2022/03/09 12:26:37;;;;;;;12.57;10.95;;;26.50;35.80;;;;;;4930874;29;20046;-79
2022/03/09 12:29:27;;;;;;;13.18;10.95;;;26.80;35.80;;;;;;4927808;29;20234;-80
2022/03/09 12:32:02;;;;;;;13.45;11.50;;;26.90;35.30;;;;;;4927841;29;20064;-80
2022/03/09 12:34:30;;;;;;;12.93;11.50;;;27.10;35.20;;;;;;4916699;29;20043;-79
2022/03/09 12:36:56;;;;;;;12.40;10.75;;;26.90;34.60;;;;;;4915275;29;20091;-79
2022/03/09 12:39:23;;;;;;;14.57;10.38;;;27.00;36.00;;;;;;4947259;29;20079;-80
2022/03/09 12:41:56;;;;;;;12.82;10.50;;;27.80;35.10;;;;;;4930530;29;20309;-80
2022/03/09 12:44:23;;;;;;;12.65;10.95;;;27.90;34.60;;;;;;4930458;29;20028;-79
2022/03/09 12:46:53;;;;;;;14.27;10.38;;;28.00;34.80;;;;;;4930510;29;20036;-80
2022/03/09 12:49:40;;;;;;;13.80;10.27;;;27.80;34.40;;;;;;4930762;29;20020;-79
2022/03/09 12:52:08;;;;;;;14.23;10.90;;;28.70;34.40;;;;;;4930815;29;20099;-79
2022/03/09 12:54:38;;;;;;;11.63;10.43;;;29.00;34.90;;;;;;4937859;29;20063;-79
2022/03/09 12:57:08;;;;;;;12.68;10.63;;;29.80;34.30;;;;;;4930506;29;20023;-80
2022/03/09 12:59:52;;;;;;;14.20;10.88;;;29.50;35.00;;;;;;4929246;29;20039;-80
2022/03/09 13:02:52;;;;;;;14.48;12.20;;;28.60;33.50;;;;;;4927161;29;20036;-80
2022/03/09 13:05:21;;;;;;;13.05;10.70;;;28.70;33.40;;;;;;4942013;29;20026;-79
2022/03/09 13:07:56;;;;;;;;;;;29.60;33.80;;;;;;4915874;29;20020;-80
2022/03/09 13:14:22;;;;;;;11.10;9.90;;;30.40;33.70;;;;;;4869917;29;20037;-80
2022/03/09 13:17:06;;;;;;;13.20;11.00;;;31.20;34.10;;;;;;4848058;29;20049;-79
2022/03/09 13:20:16;;;;;;;14.18;11.63;;;31.30;33.20;;;;;;4889329;29;20044;-79
2022/03/09 13:22:58;;;;;;;13.00;11.00;;;31.10;32.90;;;;;;4889198;29;20033;-79
2022/03/09 13:25:31;;;;;;;16.13;10.85;;;32.00;33.70;;;;;;4877293;29;20084;-80
2022/03/09 13:28:51;;;;;;;14.93;11.07;;;31.20;33.40;;;;;;4889702;29;20350;-79
2022/03/09 13:31:52;;;;;;;14.37;12.07;;;31.60;33.60;;;;;;4853377;29;20038;-80
2022/03/09 13:34:45;;;;;;;14.68;11.70;;;31.30;32.70;;;;;;4820626;29;20043;-80
2022/03/09 13:37:42;;;;;;;13.45;11.30;;;31.50;32.80;;;;;;4817401;29;20042;-80
2022/03/09 13:40:21;;;;;;;13.63;11.07;;;32.10;32.90;;;;;;4818939;29;20065;-79
2022/03/09 13:42:49;;;;;;;16.60;12.38;;;31.50;32.50;;;;;;4833652;29;20058;-79
2022/03/09 13:48:41;;;;;;;18.35;11.93;;;31.60;33.30;;;;;;4798721;29;20034;-79
2022/03/09 13:51:07;;;;;;;15.55;11.98;;;31.40;33.20;;;;;;4845985;29;20045;-79
2022/03/09 13:54:02;;;;;;;15.20;12.07;;;32.10;33.10;;;;;;4851254;29;20053;-79
2022/03/09 13:56:28;;;;;;;14.10;11.52;;;32.80;32.50;;;;;;4850640;29;20367;-80
2022/03/09 13:58:54;;;;;;;15.55;11.18;;;32.40;32.80;;;;;;4835389;29;20053;-79
2022/03/09 14:01:23;;;;;;;14.25;10.68;;;32.80;32.00;;;;;;4849937;29;20362;-80
2022/03/09 14:03:53;;;;;;;16.05;11.75;;;33.00;33.40;;;;;;4835823;29;20085;-80
2022/03/09 14:06:37;;;;;;;12.90;11.40;;;33.20;31.80;;;;;;4849972;29;20085;-79
2022/03/09 14:09:12;;;;;;;15.25;13.13;;;33.30;31.40;;;;;;4872358;29;20331;-80
2022/03/09 14:11:39;;;;;;;14.52;12.15;;;32.40;31.40;;;;;;4886928;29;20260;-80
2022/03/09 14:18:10;;;;;;;14.65;12.00;;;33.00;33.40;;;;;;4872543;29;20044;-80
2022/03/09 14:20:51;;;;;;;15.77;12.60;;;33.20;33.40;;;;;;4856410;29;20040;-80
2022/03/09 14:24:12;;;;;;;13.75;12.25;;;33.70;31.40;;;;;;4853777;29;20063;-80
2022/03/09 14:26:53;;;;;;;13.10;11.63;;;33.10;31.50;;;;;;4868299;29;20033;-80
2022/03/09 14:37:04;;;;;;;13.73;11.55;;;32.80;31.40;;;;;;5788055;23;20082;-76
2022/03/09 14:39:30;;;;;;;13.85;11.60;;;32.20;31.60;;;;;;4965660;29;20043;-78
2022/03/09 14:41:56;;;;;;;14.52;11.57;;;33.70;31.90;;;;;;4965480;29;20110;-80
2022/03/09 14:44:22;;;;;;;13.98;12.13;;;33.80;32.00;;;;;;4964958;29;20149;-78
2022/03/09 14:46:48;;;;;;;13.02;11.73;;;33.80;32.70;;;;;;4964301;28;20039;-77
2022/03/09 14:49:14;;;;;;;12.50;10.20;;;34.10;30.90;;;;;;4947693;29;20027;-78
2022/03/09 14:51:39;;;;;;;13.27;11.80;;;34.60;31.10;;;;;;4946716;29;20034;-78
2022/03/09 14:54:06;;;;;;;12.70;10.52;;;35.10;30.60;;;;;;4931757;29;20027;-78
2022/03/09 14:56:35;;;;;;;13.25;11.02;;;34.20;30.20;;;;;;4930895;29;20027;-78
2022/03/09 14:59:01;;;;;;;11.52;10.13;;;34.20;32.20;;;;;;4931902;29;20026;-78
2022/03/09 15:01:26;;;;;;;11.95;10.55;;;34.80;32.50;;;;;;4946279;29;20242;-78
2022/03/09 15:03:54;;;;;;;13.07;10.98;;;34.70;30.50;;;;;;4931307;29;20031;-78
2022/03/09 15:10:20;;;;;;;14.07;11.35;;;33.80;30.60;;;;;;4964441;29;20041;-78
2022/03/09 15:12:48;;;;;;;12.75;11.23;;;33.20;30.60;;;;;;4946448;29;20031;-78
2022/03/09 15:15:14;;;;;;;13.00;10.65;;;32.50;30.50;;;;;;4930641;28;20034;-77
2022/03/09 15:17:40;;;;;;;12.63;11.27;;;32.80;31.00;;;;;;4963655;29;20213;-78
2022/03/09 15:20:07;;;;;;;13.95;11.07;;;32.00;31.80;;;;;;4946808;29;20108;-77
2022/03/09 15:22:32;;;;;;;13.45;12.05;;;31.80;31.70;;;;;;4946223;29;20313;-77